Time;durP1;ratioP1;P1;durP2;ratioP2;P2;SDS_P1;SDS_P2;PMS_P1;PMS_P2;Temp;Humidity;BMP_temperature;BMP_pressure;BME280_temperature;BME280_humidity;BME280_pressure;Samples;Min_cycle;Max_cycle;Signal;HPM_P1;HPM_P2
2022/07/13 00:01:34;;;;;;;1.83;1.73;;;21.80;93.90;;;;;;6229295;28;89996;-63
2022/07/13 00:04:37;;;;;;;2.90;1.95;;;21.80;93.90;;;;;;6229370;28;89100;-64
2022/07/13 00:07:39;;;;;;;2.05;1.70;;;21.80;93.90;;;;;;6224789;28;87247;-63
2022/07/13 00:10:41;;;;;;;1.80;1.60;;;21.80;94.00;;;;;;6235247;28;89149;-64
2022/07/13 00:13:43;;;;;;;2.17;1.90;;;21.80;93.90;;;;;;6226825;28;89348;-63
2022/07/13 00:16:45;;;;;;;2.70;1.83;;;21.80;94.00;;;;;;6229189;28;89097;-63
2022/07/13 00:19:49;;;;;;;2.08;1.80;;;21.80;94.00;;;;;;6214127;28;88964;-64
2022/07/13 00:22:51;;;;;;;2.10;1.90;;;21.80;94.00;;;;;;6215366;28;88662;-63
2022/07/13 00:25:53;;;;;;;2.00;1.80;;;21.80;94.00;;;;;;6222587;28;89146;-64
2022/07/13 00:28:55;;;;;;;1.80;1.50;;;21.80;94.00;;;;;;6220917;28;88370;-64
2022/07/13 00:31:58;;;;;;;2.85;1.80;;;21.80;94.00;;;;;;6221881;28;90048;-64
2022/07/13 00:35:01;;;;;;;2.10;1.90;;;21.80;94.00;;;;;;6227917;28;87048;-63
2022/07/13 00:38:03;;;;;;;2.38;1.95;;;21.80;94.00;;;;;;6215992;28;89047;-63
2022/07/13 00:41:06;;;;;;;2.83;2.10;;;21.80;94.00;;;;;;6220763;28;89041;-64
2022/07/13 00:44:08;;;;;;;2.25;1.88;;;21.70;94.00;;;;;;6221109;28;89522;-63
2022/07/13 00:47:11;;;;;;;1.80;1.55;;;21.80;94.00;;;;;;6222423;28;89184;-63
2022/07/13 00:50:15;;;;;;;2.00;1.80;;;21.70;94.00;;;;;;6234059;28;89245;-63
2022/07/13 00:53:19;;;;;;;2.22;1.85;;;21.70;94.00;;;;;;6212595;28;88700;-63
2022/07/13 00:56:22;;;;;;;2.03;1.67;;;21.70;94.00;;;;;;6217861;28;89333;-64
2022/07/13 00:59:24;;;;;;;2.58;1.60;;;21.70;94.00;;;;;;6240373;28;89393;-63
2022/07/13 01:02:26;;;;;;;1.92;1.60;;;21.70;94.00;;;;;;6219912;28;89016;-64
2022/07/13 01:05:31;;;;;;;1.73;1.63;;;21.80;93.90;;;;;;6224357;28;89420;-63
2022/07/13 01:08:34;;;;;;;1.90;1.70;;;21.70;93.90;;;;;;6209024;28;89029;-63
2022/07/13 01:11:37;;;;;;;2.03;1.77;;;21.70;93.90;;;;;;6209332;28;89017;-63
2022/07/13 01:14:39;;;;;;;2.15;1.70;;;21.70;93.80;;;;;;6209384;28;88045;-64
2022/07/13 01:17:41;;;;;;;2.20;1.80;;;21.70;93.90;;;;;;6225174;28;89353;-63
2022/07/13 01:20:45;;;;;;;2.05;1.85;;;21.70;93.90;;;;;;6232404;28;89068;-64
2022/07/13 01:23:49;;;;;;;1.60;1.50;;;21.70;94.00;;;;;;6225029;28;88255;-63
2022/07/13 01:26:52;;;;;;;2.45;1.80;;;21.70;94.00;;;;;;6233591;28;89117;-64
2022/07/13 01:29:54;;;;;;;2.80;2.00;;;21.70;93.90;;;;;;6229988;28;89009;-63
2022/07/13 01:32:56;;;;;;;1.85;1.45;;;21.70;93.90;;;;;;6225586;28;90089;-63
2022/07/13 01:35:58;;;;;;;2.65;1.60;;;21.70;93.90;;;;;;6221918;28;89078;-63
2022/07/13 01:39:02;;;;;;;2.60;1.70;;;21.70;93.90;;;;;;6231502;28;88325;-63
2022/07/13 01:42:05;;;;;;;1.83;1.67;;;21.70;93.90;;;;;;6232739;28;88942;-63
2022/07/13 01:45:09;;;;;;;1.90;1.60;;;21.70;93.90;;;;;;6219762;28;89071;-63
2022/07/13 01:48:11;;;;;;;1.95;1.65;;;21.70;93.80;;;;;;6233374;28;89174;-63
2022/07/13 01:51:13;;;;;;;1.65;1.52;;;21.70;93.70;;;;;;6228145;28;88318;-64
2022/07/13 01:54:16;;;;;;;2.00;1.80;;;21.70;93.70;;;;;;6220063;28;88345;-63
2022/07/13 01:57:19;;;;;;;2.25;1.52;;;21.70;93.70;;;;;;6227447;28;87772;-63
2022/07/13 02:00:21;;;;;;;2.47;1.83;;;21.70;93.80;;;;;;6225944;28;89095;-63
2022/07/13 02:03:23;;;;;;;1.75;1.60;;;21.70;93.80;;;;;;6217769;28;88934;-63
2022/07/13 02:06:25;;;;;;;1.70;1.60;;;21.70;93.80;;;;;;6223334;28;90394;-63
2022/07/13 02:09:29;;;;;;;2.10;1.70;;;21.70;93.80;;;;;;6230292;28;89107;-63
2022/07/13 02:12:31;;;;;;;2.05;1.65;;;21.70;93.80;;;;;;6220427;28;89072;-63
2022/07/13 02:15:33;;;;;;;1.67;1.48;;;21.70;93.80;;;;;;6228658;28;89238;-63
2022/07/13 02:18:35;;;;;;;4.85;2.70;;;21.70;93.70;;;;;;6225753;28;89286;-64
2022/07/13 02:21:38;;;;;;;2.45;1.60;;;21.60;93.70;;;;;;6222100;28;88977;-64
2022/07/13 02:24:41;;;;;;;1.77;1.65;;;21.70;93.70;;;;;;6226846;28;87209;-64
2022/07/13 02:27:44;;;;;;;2.05;1.85;;;21.70;93.70;;;;;;6230918;28;89110;-63
2022/07/13 02:30:46;;;;;;;1.70;1.60;;;21.60;93.80;;;;;;6229199;28;89153;-63
2022/07/13 02:33:48;;;;;;;2.38;1.80;;;21.60;93.80;;;;;;6217426;28;90253;-64
2022/07/13 02:36:50;;;;;;;2.25;1.80;;;21.60;93.70;;;;;;6232069;28;89377;-63
2022/07/13 02:39:56;;;;;;;3.47;2.35;;;21.60;93.60;;;;;;6229501;28;88233;-64
2022/07/13 02:42:58;;;;;;;1.85;1.75;;;21.60;93.50;;;;;;6233423;28;89007;-63
2022/07/13 02:46:00;;;;;;;1.90;1.70;;;21.60;93.50;;;;;;6221689;28;89474;-63
2022/07/13 02:49:02;;;;;;;2.97;1.60;;;21.60;93.50;;;;;;6208261;28;89402;-63
2022/07/13 02:52:04;;;;;;;1.73;1.63;;;21.60;93.50;;;;;;6212105;28;89491;-63
2022/07/13 02:55:08;;;;;;;2.30;1.90;;;21.60;93.50;;;;;;6230168;28;88374;-63
2022/07/13 02:58:10;;;;;;;1.85;1.65;;;21.60;93.50;;;;;;6230361;28;89411;-63
2022/07/13 03:01:12;;;;;;;1.95;1.70;;;21.60;93.50;;;;;;6217653;28;88121;-63
2022/07/13 03:04:14;;;;;;;1.75;1.63;;;21.60;93.50;;;;;;6206121;28;90057;-66
2022/07/13 03:07:16;;;;;;;4.28;2.55;;;21.60;93.50;;;;;;6206093;28;89095;-63
2022/07/13 03:10:20;;;;;;;1.85;1.75;;;21.60;93.50;;;;;;6231727;28;89040;-63
2022/07/13 03:13:22;;;;;;;1.70;1.60;;;21.60;93.50;;;;;;6231041;28;89296;-65
2022/07/13 03:16:24;;;;;;;1.85;1.70;;;21.60;93.50;;;;;;6222582;28;89351;-65
2022/07/13 03:19:26;;;;;;;1.77;1.65;;;21.60;93.50;;;;;;6206620;28;89059;-65
2022/07/13 03:22:28;;;;;;;1.55;1.45;;;21.60;93.50;;;;;;6209662;28;89072;-65
2022/07/13 03:25:32;;;;;;;1.70;1.60;;;21.60;93.50;;;;;;6226390;28;88395;-65
2022/07/13 03:28:34;;;;;;;2.13;1.80;;;21.60;93.50;;;;;;6227169;28;89341;-65
2022/07/13 03:31:36;;;;;;;1.77;1.67;;;21.60;93.40;;;;;;6230406;28;88312;-65
2022/07/13 03:34:38;;;;;;;1.70;1.60;;;21.60;93.50;;;;;;6222327;28;89714;-65
2022/07/13 03:37:40;;;;;;;1.85;1.63;;;21.60;93.50;;;;;;6212227;28;89088;-65
2022/07/13 03:40:43;;;;;;;2.72;1.70;;;21.60;93.40;;;;;;6226474;28;89064;-65
2022/07/13 03:43:45;;;;;;;2.90;2.08;;;21.60;93.40;;;;;;6220079;28;88823;-65
2022/07/13 03:46:47;;;;;;;2.15;1.90;;;21.60;93.30;;;;;;6208343;28;89057;-65
2022/07/13 03:49:49;;;;;;;2.00;1.90;;;21.60;93.30;;;;;;6222726;28;89096;-65
2022/07/13 03:52:51;;;;;;;2.72;1.90;;;21.60;93.30;;;;;;6209720;28;87948;-65
2022/07/13 03:55:55;;;;;;;2.17;1.60;;;21.60;93.20;;;;;;6218910;28;88385;-65
2022/07/13 03:58:57;;;;;;;2.53;1.80;;;21.60;93.20;;;;;;6225559;28;87953;-65
2022/07/13 04:01:59;;;;;;;2.33;2.00;;;21.50;93.20;;;;;;6219233;28;89033;-65
2022/07/13 04:05:01;;;;;;;2.00;1.90;;;21.50;93.20;;;;;;6217801;28;90428;-65
2022/07/13 04:08:04;;;;;;;1.80;1.70;;;21.60;93.20;;;;;;6211842;28;86939;-65
2022/07/13 04:11:07;;;;;;;2.13;1.88;;;21.60;93.40;;;;;;6217071;28;89064;-65
2022/07/13 04:14:09;;;;;;;2.00;1.80;;;21.60;93.40;;;;;;6208947;28;89204;-65
2022/07/13 04:17:11;;;;;;;2.15;1.80;;;21.60;93.40;;;;;;6210427;28;89250;-65
2022/07/13 04:20:13;;;;;;;1.90;1.80;;;21.60;93.40;;;;;;6216147;28;89522;-65
2022/07/13 04:23:15;;;;;;;1.83;1.73;;;21.60;93.50;;;;;;6219282;28;89020;-65
2022/07/13 04:26:19;;;;;;;3.05;2.28;;;21.60;93.50;;;;;;6217398;28;88424;-65
2022/07/13 04:29:21;;;;;;;2.13;1.92;;;21.50;93.60;;;;;;6229108;28;89148;-65
2022/07/13 04:32:23;;;;;;;2.22;1.90;;;21.60;93.60;;;;;;6229152;28;89204;-66
2022/07/13 04:35:25;;;;;;;2.00;1.80;;;21.50;93.60;;;;;;6228426;28;90207;-65
2022/07/13 04:38:27;;;;;;;2.40;1.90;;;21.50;93.70;;;;;;6229648;28;89010;-65
2022/07/13 04:41:31;;;;;;;2.10;1.90;;;21.60;93.70;;;;;;6239255;28;89073;-65
2022/07/13 04:44:33;;;;;;;3.80;2.42;;;21.60;93.80;;;;;;6219840;28;89142;-65
2022/07/13 04:47:35;;;;;;;2.00;1.90;;;21.50;93.80;;;;;;6215258;28;89132;-65
2022/07/13 04:50:37;;;;;;;2.97;1.92;;;21.60;93.80;;;;;;6229255;28;89080;-65
2022/07/13 04:53:39;;;;;;;2.88;2.28;;;21.60;93.80;;;;;;6215777;28;89082;-65
2022/07/13 04:56:43;;;;;;;2.30;2.10;;;21.60;93.90;;;;;;6219434;28;88324;-65
2022/07/13 04:59:45;;;;;;;2.53;1.95;;;21.60;93.90;;;;;;6219152;28;89037;-65
2022/07/13 05:02:47;;;;;;;2.58;2.00;;;21.60;94.20;;;;;;6222337;28;89408;-65
2022/07/13 05:05:49;;;;;;;2.72;2.08;;;21.60;95.20;;;;;;6224824;28;89925;-65
2022/07/13 05:08:52;;;;;;;2.00;1.90;;;21.60;94.80;;;;;;6204823;28;89114;-65
2022/07/13 05:11:55;;;;;;;1.80;1.70;;;21.70;94.80;;;;;;6222076;28;89070;-65
2022/07/13 05:14:59;;;;;;;1.85;1.75;;;21.70;94.80;;;;;;6212479;28;89043;-65
2022/07/13 05:18:01;;;;;;;2.60;2.13;;;21.70;94.70;;;;;;6211954;28;89453;-65
2022/07/13 05:21:03;;;;;;;2.53;2.00;;;21.70;94.70;;;;;;6215236;28;89312;-66
2022/07/13 05:24:06;;;;;;;8.48;3.05;;;21.70;94.70;;;;;;6225904;28;88230;-64
2022/07/13 05:27:09;;;;;;;5.15;2.42;;;21.70;95.80;;;;;;6210229;28;87538;-64
2022/07/13 05:30:11;;;;;;;2.70;2.17;;;21.70;95.60;;;;;;6218398;28;89077;-64
2022/07/13 05:33:16;;;;;;;4.53;2.15;;;21.70;95.60;;;;;;6211660;28;89040;-64
2022/07/13 05:36:18;;;;;;;2.22;2.00;;;21.70;95.00;;;;;;6220994;28;89877;-64
2022/07/13 05:39:20;;;;;;;5.07;2.15;;;21.70;95.00;;;;;;6229466;28;89384;-64
2022/07/13 05:42:25;;;;;;;3.70;2.25;;;21.70;95.00;;;;;;6248050;28;89008;-64
2022/07/13 05:45:27;;;;;;;4.65;2.20;;;21.70;95.00;;;;;;6212731;28;89231;-64
2022/07/13 05:48:29;;;;;;;3.22;2.35;;;21.80;95.20;;;;;;6242158;28;89121;-64
2022/07/13 05:51:31;;;;;;;3.00;2.03;;;21.70;95.30;;;;;;6224648;28;89051;-64
2022/07/13 05:54:35;;;;;;;2.63;2.10;;;21.70;95.30;;;;;;6226653;28;89160;-64
2022/07/13 05:57:39;;;;;;;3.88;2.03;;;21.70;95.20;;;;;;6231219;28;88712;-64
2022/07/13 06:00:41;;;;;;;3.22;1.88;;;21.80;95.30;;;;;;6230143;28;89062;-64
2022/07/13 06:03:43;;;;;;;2.28;1.85;;;21.70;95.40;;;;;;6220792;28;89255;-64
2022/07/13 06:06:45;;;;;;;2.50;1.80;;;21.70;95.40;;;;;;6229720;28;90126;-64
2022/07/13 06:09:47;;;;;;;2.30;2.00;;;21.70;95.30;;;;;;6230461;28;88144;-64
2022/07/13 06:12:50;;;;;;;2.53;1.95;;;21.70;95.30;;;;;;6211488;28;89497;-64
2022/07/13 06:15:53;;;;;;;3.63;2.20;;;21.70;95.40;;;;;;6220884;28;87966;-64
2022/07/13 06:18:55;;;;;;;2.30;1.90;;;21.70;95.50;;;;;;6232685;28;89459;-64
2022/07/13 06:21:56;;;;;;;3.13;1.88;;;21.70;95.50;;;;;;6229813;28;89175;-64
2022/07/13 06:24:59;;;;;;;2.67;1.70;;;21.70;95.70;;;;;;6227004;28;89021;-64
2022/07/13 06:28:02;;;;;;;2.80;2.10;;;21.70;95.80;;;;;;6221390;28;88720;-64
2022/07/13 06:31:05;;;;;;;2.45;1.83;;;21.70;95.90;;;;;;6220556;28;88011;-64
2022/07/13 06:34:07;;;;;;;2.20;1.70;;;21.70;96.00;;;;;;6232051;28;88929;-65
2022/07/13 06:37:08;;;;;;;1.88;1.73;;;21.70;96.20;;;;;;6232050;28;89974;-64
2022/07/13 06:40:12;;;;;;;1.90;1.70;;;21.70;96.10;;;;;;6231649;28;88948;-64
2022/07/13 06:43:15;;;;;;;2.67;1.88;;;21.70;96.00;;;;;;6209849;28;89089;-64
2022/07/13 06:46:17;;;;;;;2.00;1.80;;;21.80;96.00;;;;;;6220726;28;89167;-64
2022/07/13 06:49:19;;;;;;;1.77;1.65;;;21.70;96.10;;;;;;6224253;28;89112;-64
2022/07/13 06:52:21;;;;;;;2.28;1.70;;;21.80;96.40;;;;;;6225203;28;88865;-65
2022/07/13 06:55:24;;;;;;;3.70;1.60;;;21.80;96.60;;;;;;6225524;28;89035;-64
2022/07/13 06:58:27;;;;;;;1.95;1.75;;;21.80;96.60;;;;;;6226711;28;88390;-64
2022/07/13 07:01:29;;;;;;;1.60;1.50;;;21.70;96.70;;;;;;6219286;28;89058;-64
2022/07/13 07:04:31;;;;;;;2.10;1.90;;;21.80;96.80;;;;;;6222476;28;88697;-64
2022/07/13 07:07:34;;;;;;;2.47;1.92;;;21.80;96.90;;;;;;6217164;28;89979;-64
2022/07/13 07:10:36;;;;;;;3.47;1.80;;;21.80;97.00;;;;;;6229956;28;89122;-64
2022/07/13 07:13:39;;;;;;;2.15;1.70;;;21.80;97.10;;;;;;6228098;28;87926;-64
2022/07/13 07:16:42;;;;;;;2.08;1.50;;;21.80;97.10;;;;;;6218373;28;89063;-64
2022/07/13 07:19:45;;;;;;;3.50;2.00;;;21.80;97.20;;;;;;6217478;28;88294;-65
2022/07/13 07:22:48;;;;;;;2.15;1.67;;;21.80;97.30;;;;;;6228168;28;89024;-65
2022/07/13 07:25:50;;;;;;;1.63;1.52;;;21.80;97.40;;;;;;6230874;28;89085;-65
2022/07/13 07:28:53;;;;;;;1.92;1.60;;;21.80;97.70;;;;;;6218237;28;88409;-64
2022/07/13 07:31:55;;;;;;;1.95;1.60;;;21.80;97.50;;;;;;6229147;28;89014;-65
2022/07/13 07:34:57;;;;;;;2.70;1.70;;;21.80;97.80;;;;;;6230455;28;89165;-65
2022/07/13 07:37:59;;;;;;;2.30;1.85;;;21.80;97.80;;;;;;6228821;28;90072;-65
2022/07/13 07:41:01;;;;;;;2.53;1.77;;;21.80;97.90;;;;;;6219075;28;89264;-65
2022/07/13 07:44:05;;;;;;;2.05;1.80;;;21.80;97.90;;;;;;6216694;28;87991;-65
2022/07/13 07:47:08;;;;;;;2.90;1.77;;;21.80;97.80;;;;;;6236066;28;89133;-64
2022/07/13 07:50:11;;;;;;;2.42;1.83;;;21.80;97.90;;;;;;6215470;28;89095;-65
2022/07/13 07:53:13;;;;;;;1.77;1.50;;;21.80;98.00;;;;;;6213287;28;89405;-65
2022/07/13 07:56:15;;;;;;;2.05;1.70;;;21.80;97.90;;;;;;6230135;28;89017;-65
2022/07/13 07:59:19;;;;;;;2.75;1.77;;;21.80;98.00;;;;;;6224031;28;88322;-65
2022/07/13 08:02:21;;;;;;;3.42;2.33;;;21.80;98.00;;;;;;6228858;28;89125;-65
2022/07/13 08:05:23;;;;;;;2.15;1.75;;;21.80;98.00;;;;;;6242092;28;89019;-65
2022/07/13 08:08:26;;;;;;;1.77;1.52;;;21.80;98.00;;;;;;6210735;28;90091;-65
2022/07/13 08:11:28;;;;;;;2.42;1.75;;;21.80;98.10;;;;;;6219170;28;89164;-65
2022/07/13 08:14:31;;;;;;;1.70;1.60;;;21.80;98.20;;;;;;6228815;28;87974;-65
2022/07/13 08:17:33;;;;;;;2.03;1.60;;;21.80;98.10;;;;;;6219366;28;89511;-65
2022/07/13 08:20:36;;;;;;;1.70;1.60;;;21.80;98.10;;;;;;6226842;28;89140;-65
2022/07/13 08:23:54;;;;;;;1.80;1.48;;;21.80;98.00;;;;;;6229327;28;89175;-65
2022/07/13 08:26:57;;;;;;;2.25;1.70;;;21.80;98.00;;;;;;6215638;28;88269;-65
2022/07/13 08:30:00;;;;;;;2.58;1.73;;;21.80;98.20;;;;;;6213428;28;88429;-64
2022/07/13 08:33:03;;;;;;;1.50;1.40;;;21.80;98.60;;;;;;6215556;28;89100;-65
2022/07/13 08:39:25;;;;;;;1.67;1.58;;;21.80;98.40;;;;;;6186624;28;88772;-65
2022/07/13 08:42:26;;;;;;;2.50;1.77;;;21.90;98.60;;;;;;6219725;28;89079;-65
2022/07/13 08:45:30;;;;;;;2.08;1.77;;;21.80;98.60;;;;;;6229613;28;89452;-64
2022/07/13 08:48:38;;;;;;;2.38;1.92;;;21.80;98.70;;;;;;6229269;28;89098;-65
2022/07/13 08:51:42;;;;;;;2.17;1.75;;;21.80;98.60;;;;;;6239559;28;90161;-65
2022/07/13 08:54:45;;;;;;;2.67;1.60;;;21.80;98.80;;;;;;6229071;28;89041;-64
2022/07/13 08:57:47;;;;;;;2.30;1.50;;;21.80;98.90;;;;;;6233967;28;88919;-65
2022/07/13 09:00:51;;;;;;;1.65;1.55;;;21.80;99.00;;;;;;6226570;28;88302;-65
2022/07/13 09:03:53;;;;;;;2.30;1.63;;;21.80;98.90;;;;;;6219161;28;89016;-65
2022/07/13 09:06:56;;;;;;;1.65;1.55;;;21.80;99.10;;;;;;6223164;28;88287;-65
2022/07/13 09:10:01;;;;;;;1.65;1.55;;;21.80;99.10;;;;;;6228781;28;90061;-63
2022/07/13 09:13:04;;;;;;;3.80;2.05;;;21.80;99.10;;;;;;6218827;28;88443;-65
2022/07/13 09:16:15;;;;;;;2.47;1.77;;;21.80;99.90;;;;;;6220950;28;87703;-65
2022/07/13 09:19:17;;;;;;;16.15;11.88;;;21.90;99.90;;;;;;6211137;28;87082;-65
2022/07/13 09:22:20;;;;;;;98.28;82.28;;;21.90;99.90;;;;;;6219279;28;88024;-66
2022/07/13 09:25:27;;;;;;;176.75;157.65;;;22.00;99.90;;;;;;6223616;28;89112;-65
2022/07/13 09:28:43;;;;;;;387.13;284.10;;;22.10;99.90;;;;;;6213664;28;89467;-65
2022/07/13 09:31:55;;;;;;;653.88;584.42;;;22.30;99.90;;;;;;6228166;28;87718;-66
2022/07/13 09:35:03;;;;;;;317.65;282.73;;;22.50;99.90;;;;;;6212215;28;87731;-65
2022/07/13 09:38:05;;;;;;;210.70;172.63;;;22.70;99.90;;;;;;6219970;28;88356;-65
2022/07/13 09:41:24;;;;;;;171.02;143.45;;;22.80;99.90;;;;;;6218261;28;89968;-65
2022/07/13 09:47:53;;;;;;;135.35;112.10;;;23.00;98.80;;;;;;6213572;28;89605;-64
2022/07/13 09:50:56;;;;;;;125.88;103.93;;;22.90;98.10;;;;;;6216622;28;88903;-64
2022/07/13 09:54:01;;;;;;;107.55;93.82;;;22.90;97.80;;;;;;6209322;28;89074;-64
2022/07/13 09:57:06;;;;;;;103.55;87.20;;;22.90;97.80;;;;;;6219788;28;89007;-65
2022/07/13 10:00:11;;;;;;;109.45;88.15;;;22.80;97.70;;;;;;6222084;28;89392;-64
2022/07/13 10:03:15;;;;;;;100.72;84.60;;;22.80;97.80;;;;;;6222680;28;88657;-64
2022/07/13 10:06:20;;;;;;;92.38;79.60;;;22.80;97.80;;;;;;6218004;28;89077;-65
2022/07/13 10:09:23;;;;;;;91.50;77.95;;;22.80;97.90;;;;;;6219750;28;89220;-64
2022/07/13 10:12:26;;;;;;;86.13;74.32;;;22.70;97.90;;;;;;6229237;28;90357;-65
2022/07/13 10:15:28;;;;;;;82.47;71.05;;;22.70;98.00;;;;;;6227767;28;89453;-64
2022/07/13 10:18:37;;;;;;;80.88;68.70;;;22.60;98.00;;;;;;6237992;28;89137;-64
2022/07/13 10:21:55;;;;;;;83.05;66.78;;;22.60;98.00;;;;;;6234469;28;89214;-65
2022/07/13 10:24:59;;;;;;;71.88;62.30;;;22.60;98.10;;;;;;6219508;28;87945;-64
2022/07/13 10:28:05;;;;;;;71.07;59.10;;;22.60;98.20;;;;;;6230829;28;88487;-65
2022/07/13 10:31:28;;;;;;;68.20;56.58;;;22.50;98.10;;;;;;6225942;28;90162;-65
2022/07/13 10:34:58;;;;;;;67.35;54.53;;;22.50;98.10;;;;;;6223254;28;88408;-64
2022/07/13 10:38:22;;;;;;;59.83;51.72;;;22.50;98.20;;;;;;6226302;28;89054;-63
2022/07/13 10:41:24;;;;;;;57.33;49.80;;;22.50;98.20;;;;;;6226960;28;89212;-63
2022/07/13 10:44:38;;;;;;;57.20;50.17;;;22.50;98.10;;;;;;6224276;28;90072;-63
2022/07/13 10:47:45;;;;;;;61.05;49.95;;;22.50;98.20;;;;;;6220563;28;89140;-64
2022/07/13 10:50:52;;;;;;;57.95;48.10;;;22.50;98.30;;;;;;6230470;28;89130;-64
2022/07/13 10:54:15;;;;;;;53.22;47.28;;;22.40;98.30;;;;;;6223279;28;88915;-63
2022/07/13 10:57:17;;;;;;;56.10;46.15;;;22.40;98.20;;;;;;6212280;28;89062;-64
2022/07/13 11:00:22;;;;;;;55.10;45.50;;;22.40;98.20;;;;;;6224167;28;89183;-63
2022/07/13 11:03:27;;;;;;;54.78;45.20;;;22.40;98.30;;;;;;6230351;28;89089;-64
2022/07/13 11:06:31;;;;;;;53.72;46.30;;;22.40;98.20;;;;;;6229700;28;88775;-64
2022/07/13 11:09:33;;;;;;;48.55;42.30;;;22.40;98.20;;;;;;6226384;28;89203;-63
2022/07/13 11:12:35;;;;;;;45.30;40.30;;;22.40;98.20;;;;;;6229923;28;89085;-63
2022/07/13 11:15:46;;;;;;;48.50;39.45;;;22.40;98.00;;;;;;6218229;28;91262;-63
2022/07/13 11:18:54;;;;;;;48.22;39.25;;;22.40;98.20;;;;;;6218586;28;89077;-64
2022/07/13 11:22:08;;;;;;;45.50;38.13;;;22.40;98.20;;;;;;6220237;28;88981;-63
2022/07/13 11:25:38;;;;;;;41.25;36.75;;;22.40;98.20;;;;;;6222882;28;89059;-64
2022/07/13 11:28:48;;;;;;;44.97;37.17;;;22.40;98.20;;;;;;6236541;28;89100;-63
2022/07/13 11:31:55;;;;;;;41.85;36.42;;;22.40;98.10;;;;;;6233513;28;89180;-63
2022/07/13 11:34:58;;;;;;;41.67;35.15;;;22.40;98.10;;;;;;6218935;28;89153;-64
2022/07/13 11:38:02;;;;;;;39.85;35.17;;;22.30;98.00;;;;;;6237718;28;88032;-63
2022/07/13 11:41:05;;;;;;;41.08;33.22;;;22.30;97.80;;;;;;6219857;28;87934;-63
2022/07/13 11:44:11;;;;;;;36.85;32.53;;;22.40;97.80;;;;;;6223642;28;88968;-64
2022/07/13 11:47:15;;;;;;;37.50;31.55;;;22.40;97.80;;;;;;6227775;28;88916;-64
2022/07/13 11:50:17;;;;;;;33.85;30.17;;;22.30;97.60;;;;;;6228286;28;89224;-63
2022/07/13 11:53:26;;;;;;;35.50;30.58;;;22.30;97.70;;;;;;6225813;28;89174;-63
2022/07/13 11:56:28;;;;;;;32.72;28.92;;;22.30;97.70;;;;;;6225129;28;89149;-63
2022/07/13 11:59:38;;;;;;;32.47;28.92;;;22.30;97.80;;;;;;6227756;28;89118;-64
2022/07/13 12:02:40;;;;;;;32.90;27.63;;;22.30;97.70;;;;;;6218419;28;89017;-63
2022/07/13 12:05:45;;;;;;;30.88;27.38;;;22.30;97.90;;;;;;6218436;28;87653;-63
2022/07/13 12:08:48;;;;;;;28.70;25.63;;;22.30;98.00;;;;;;6224796;28;88419;-63
2022/07/13 12:11:50;;;;;;;28.33;25.42;;;22.30;98.00;;;;;;6213715;28;89064;-64
2022/07/13 12:14:54;;;;;;;29.08;25.48;;;22.30;98.00;;;;;;6220589;28;89073;-63
2022/07/13 12:17:58;;;;;;;30.50;25.70;;;22.40;98.00;;;;;;6215554;28;90220;-63
2022/07/13 12:21:01;;;;;;;28.10;24.67;;;22.30;98.00;;;;;;6217197;28;89214;-63
2022/07/13 12:24:05;;;;;;;29.27;25.98;;;22.40;98.00;;;;;;6238780;28;89465;-63
2022/07/13 12:27:07;;;;;;;27.40;24.42;;;22.30;98.00;;;;;;6216888;28;89073;-63
2022/07/13 12:30:11;;;;;;;27.33;24.15;;;22.30;98.00;;;;;;6233367;28;89090;-63
2022/07/13 12:33:14;;;;;;;27.67;23.60;;;22.30;98.00;;;;;;6232795;28;89070;-63
2022/07/13 12:36:19;;;;;;;28.17;24.75;;;22.30;98.10;;;;;;6233642;28;89440;-63
2022/07/13 12:39:34;;;;;;;27.02;23.50;;;22.30;98.20;;;;;;6244985;28;88440;-63
2022/07/13 12:42:47;;;;;;;26.38;23.30;;;22.30;98.30;;;;;;6232484;28;89127;-64
2022/07/13 12:45:51;;;;;;;27.50;22.83;;;22.30;98.30;;;;;;6234101;28;89087;-63
2022/07/13 12:49:01;;;;;;;25.75;22.98;;;22.30;98.40;;;;;;6227785;28;90112;-63
2022/07/13 12:52:05;;;;;;;23.45;21.05;;;22.30;98.30;;;;;;6220869;28;89315;-63
2022/07/13 12:55:09;;;;;;;25.17;21.98;;;22.30;98.40;;;;;;6233578;28;89007;-63
2022/07/13 12:58:13;;;;;;;23.10;20.60;;;22.30;98.60;;;;;;6227408;28;89088;-63
2022/07/13 13:01:28;;;;;;;23.55;20.60;;;22.30;98.30;;;;;;6233055;28;88912;-64
2022/07/13 13:04:30;;;;;;;23.02;20.55;;;22.30;98.40;;;;;;6234041;28;89440;-63
2022/07/13 13:07:33;;;;;;;22.35;19.95;;;22.30;98.00;;;;;;6232487;28;89308;-63
2022/07/13 13:10:37;;;;;;;21.60;19.30;;;22.40;98.00;;;;;;6213377;28;88456;-64
2022/07/13 13:13:39;;;;;;;21.90;19.60;;;22.30;98.00;;;;;;6222871;28;88957;-63
2022/07/13 13:16:42;;;;;;;21.70;19.27;;;22.40;98.00;;;;;;6212718;28;89164;-63
2022/07/13 13:19:44;;;;;;;22.95;19.63;;;22.40;98.00;;;;;;6221314;28;90283;-64
2022/07/13 13:22:45;;;;;;;21.05;18.85;;;22.40;98.00;;;;;;6219749;28;89115;-64
2022/07/13 13:25:49;;;;;;;20.77;18.52;;;22.30;97.90;;;;;;6231375;28;89051;-64
2022/07/13 13:32:10;;;;;;;22.75;19.67;;;22.30;97.90;;;;;;6221653;28;87337;-64
2022/07/13 13:35:13;;;;;;;19.83;17.83;;;22.30;98.10;;;;;;6208194;28;89177;-64
2022/07/13 13:38:15;;;;;;;20.17;17.98;;;22.30;98.30;;;;;;6216141;28;88921;-64
2022/07/13 13:41:19;;;;;;;20.83;18.25;;;22.30;98.30;;;;;;6219177;28;87408;-64
2022/07/13 13:44:21;;;;;;;20.73;18.45;;;22.30;98.30;;;;;;6219347;28;89066;-63
2022/07/13 13:47:23;;;;;;;20.42;18.27;;;22.30;98.30;;;;;;6215201;28;87908;-63
2022/07/13 13:50:25;;;;;;;19.77;17.63;;;22.30;98.30;;;;;;6221799;28;90579;-64
2022/07/13 13:53:27;;;;;;;21.58;18.38;;;22.40;98.40;;;;;;6245627;28;89174;-63
2022/07/13 13:56:30;;;;;;;19.48;17.48;;;22.30;98.20;;;;;;6231932;28;89108;-64
2022/07/13 13:59:32;;;;;;;18.95;16.90;;;22.30;98.00;;;;;;6235108;28;89127;-64
2022/07/13 14:02:34;;;;;;;19.25;17.05;;;22.30;98.00;;;;;;6226900;28;89117;-63
2022/07/13 14:05:36;;;;;;;19.08;16.98;;;22.40;98.20;;;;;;6226315;28;89069;-63
2022/07/13 14:08:38;;;;;;;20.15;17.23;;;22.40;98.00;;;;;;6225784;28;89023;-63
2022/07/13 14:11:42;;;;;;;18.20;16.13;;;22.40;97.90;;;;;;6224681;28;88330;-63
2022/07/13 14:14:44;;;;;;;20.73;16.88;;;22.30;98.00;;;;;;6229813;28;89118;-63
2022/07/13 14:17:46;;;;;;;20.90;17.08;;;22.40;98.30;;;;;;6217411;28;89099;-63
2022/07/13 14:20:48;;;;;;;18.13;16.27;;;22.40;98.40;;;;;;6219166;28;89995;-64
2022/07/13 14:23:50;;;;;;;19.15;16.15;;;22.40;98.70;;;;;;6215120;28;88884;-63
2022/07/13 14:26:54;;;;;;;18.15;15.10;;;22.30;98.70;;;;;;6212420;28;87938;-64
2022/07/13 14:29:56;;;;;;;20.70;15.90;;;22.40;98.60;;;;;;6223728;28;89146;-64
2022/07/13 14:32:59;;;;;;;18.45;15.23;;;22.40;99.10;;;;;;6216349;28;87999;-64
2022/07/13 14:36:04;;;;;;;18.42;15.48;;;22.40;98.90;;;;;;6227948;28;89133;-64
2022/07/13 14:39:06;;;;;;;17.92;14.65;;;22.40;98.70;;;;;;6218290;28;89194;-64
2022/07/13 14:42:10;;;;;;;15.88;14.30;;;22.40;98.00;;;;;;6229203;28;88451;-64
2022/07/13 14:45:12;;;;;;;16.33;14.30;;;22.40;97.60;;;;;;6215671;28;88091;-64
2022/07/13 14:48:14;;;;;;;16.85;13.90;;;22.40;97.60;;;;;;6225837;28;89399;-64
2022/07/13 14:51:16;;;;;;;15.50;13.73;;;22.40;97.70;;;;;;6225826;28;90035;-64
2022/07/13 14:54:17;;;;;;;15.15;13.63;;;22.40;97.50;;;;;;6221420;28;89056;-64
2022/07/13 14:57:21;;;;;;;15.20;13.40;;;22.40;97.70;;;;;;6208986;28;89439;-64
2022/07/13 15:00:24;;;;;;;16.75;12.80;;;22.40;97.50;;;;;;6231917;28;89039;-64
2022/07/13 15:03:26;;;;;;;15.52;12.85;;;22.30;97.60;;;;;;6215996;28;89087;-64
2022/07/13 15:06:28;;;;;;;14.07;12.57;;;22.40;98.00;;;;;;6230595;28;89186;-64
2022/07/13 15:09:30;;;;;;;14.93;13.27;;;22.30;98.00;;;;;;6209721;28;89101;-65
2022/07/13 15:12:34;;;;;;;15.15;13.20;;;22.40;98.20;;;;;;6219460;28;88794;-65
2022/07/13 15:15:36;;;;;;;14.20;12.60;;;22.40;98.50;;;;;;6214738;28;88942;-65
2022/07/13 15:18:38;;;;;;;14.20;12.70;;;22.30;98.40;;;;;;6217705;28;89118;-65
2022/07/13 15:21:40;;;;;;;14.93;12.35;;;22.40;98.50;;;;;;6211618;28;89937;-65
2022/07/13 15:24:43;;;;;;;13.38;11.98;;;22.40;98.30;;;;;;6225532;28;89078;-66
2022/07/13 15:27:46;;;;;;;14.18;12.10;;;22.40;98.20;;;;;;6219562;28;89060;-65
2022/07/13 15:30:48;;;;;;;14.63;12.10;;;22.40;98.00;;;;;;6228273;28;88854;-65
2022/07/13 15:33:52;;;;;;;13.50;12.15;;;22.40;97.90;;;;;;6213703;28;89243;-65
2022/07/13 15:36:54;;;;;;;12.52;11.23;;;22.40;97.80;;;;;;6221281;28;89336;-65
2022/07/13 15:39:56;;;;;;;12.93;11.48;;;22.40;97.90;;;;;;6218937;28;89230;-65
2022/07/13 15:42:59;;;;;;;13.40;12.00;;;22.40;98.50;;;;;;6223107;28;87309;-65
2022/07/13 15:46:01;;;;;;;12.88;11.60;;;22.40;98.40;;;;;;6224466;28;89180;-66
2022/07/13 15:49:06;;;;;;;12.70;11.38;;;22.50;98.10;;;;;;6226215;28;89068;-66
2022/07/13 15:52:08;;;;;;;13.50;11.60;;;22.40;98.00;;;;;;6213042;28;88975;-64
2022/07/13 15:55:10;;;;;;;12.55;11.25;;;22.40;98.00;;;;;;6215538;28;89256;-66